Time;durP1;ratioP1;P1;durP2;ratioP2;P2;SDS_P1;SDS_P2;PMS_P1;PMS_P2;Temp;Humidity;BMP_temperature;BMP_pressure;BME280_temperature;BME280_humidity;BME280_pressure;Samples;Min_cycle;Max_cycle;Signal;HPM_P1;HPM_P2
2023/03/28 00:01:57;;;;;;;5.57;1.63;;;;;;;-0.77;100.00;100976.63;4932028;29;20051;-79
2023/03/28 00:04:23;;;;;;;2.87;0.60;;;;;;;-0.79;100.00;100970.66;4948086;28;20047;-76
2023/03/28 00:06:49;;;;;;;2.22;0.68;;;;;;;-0.75;100.00;100977.38;4932998;29;20298;-77
2023/03/28 00:09:16;;;;;;;2.92;1.00;;;;;;;-0.79;100.00;100983.75;4931958;29;20396;-76
2023/03/28 00:11:42;;;;;;;1.05;0.55;;;;;;;-0.85;100.00;100982.28;4948573;28;20561;-79
2023/03/28 00:14:07;;;;;;;0.98;0.65;;;;;;;-0.87;100.00;100992.88;4915424;29;20121;-77
2023/03/28 00:16:36;;;;;;;1.88;1.17;;;;;;;-0.90;100.00;101002.69;4948546;28;20128;-78
2023/03/28 00:19:07;;;;;;;2.65;1.00;;;;;;;-0.91;100.00;101019.34;4930383;29;20055;-76
2023/03/28 00:21:36;;;;;;;0.80;0.60;;;;;;;-1.02;100.00;101024.31;4932108;29;20493;-77
2023/03/28 00:24:04;;;;;;;5.88;1.42;;;;;;;-1.01;100.00;101037.31;4931681;29;20034;-79
2023/03/28 00:26:31;;;;;;;0.93;0.50;;;;;;;-1.03;100.00;101047.06;4933243;29;20039;-76
2023/03/28 00:28:57;;;;;;;1.38;0.70;;;;;;;-1.02;100.00;101058.38;4929937;29;20044;-80
2023/03/28 00:31:25;;;;;;;1.83;1.05;;;;;;;-0.93;100.00;101081.47;4932964;29;20078;-76
2023/03/28 00:33:51;;;;;;;2.55;0.63;;;;;;;-1.04;100.00;101074.16;4945946;28;20490;-79
2023/03/28 00:36:21;;;;;;;3.05;0.63;;;;;;;-1.09;100.00;101079.66;4934899;29;20576;-79
2023/03/28 00:38:53;;;;;;;2.78;0.80;;;;;;;-1.13;100.00;101099.06;4934746;29;20047;-78
2023/03/28 00:41:21;;;;;;;1.33;0.90;;;;;;;-1.14;100.00;101113.09;4931863;29;20036;-79
2023/03/28 00:43:57;;;;;;;2.05;0.70;;;;;;;-1.15;100.00;101115.78;4932140;29;20199;-77
2023/03/28 00:46:39;;;;;;;2.38;0.60;;;;;;;-1.16;100.00;101116.75;4926831;29;20040;-78
2023/03/28 00:49:11;;;;;;;1.38;0.60;;;;;;;-1.22;100.00;101111.78;4931863;29;20042;-77
2023/03/28 00:51:43;;;;;;;1.80;0.82;;;;;;;-1.30;100.00;101120.06;4947084;28;20556;-77
2023/03/28 00:54:14;;;;;;;1.00;0.52;;;;;;;-1.29;100.00;101132.22;4911205;29;20042;-77
2023/03/28 00:56:43;;;;;;;2.65;0.60;;;;;;;-1.28;100.00;101150.50;4927704;29;20453;-76
2023/03/28 00:59:12;;;;;;;2.05;0.50;;;;;;;-1.23;100.00;101147.63;4926919;29;20393;-76
2023/03/28 01:01:38;;;;;;;2.20;0.65;;;;;;;-1.28;100.00;101140.00;4946708;28;20032;-77
2023/03/28 01:04:05;;;;;;;3.95;1.23;;;;;;;-1.22;100.00;101140.63;4932669;29;20026;-77
2023/03/28 01:06:41;;;;;;;2.05;0.52;;;;;;;-1.22;100.00;101135.38;4945733;28;20039;-76
2023/03/28 01:09:09;;;;;;;1.90;1.00;;;;;;;-1.27;100.00;101128.59;4928600;29;20091;-77
2023/03/28 01:11:38;;;;;;;4.32;0.75;;;;;;;-1.31;100.00;101124.44;4944739;28;20489;-75
2023/03/28 01:14:03;;;;;;;2.05;0.63;;;;;;;-1.36;100.00;101121.22;4930576;29;20049;-77
2023/03/28 01:16:30;;;;;;;2.80;0.60;;;;;;;-1.28;100.00;101139.16;4946756;28;20122;-75
2023/03/28 01:19:01;;;;;;;1.90;1.13;;;;;;;-1.35;100.00;101128.13;4931544;29;20086;-78
2023/03/28 01:21:48;;;;;;;1.65;0.77;;;;;;;-1.33;100.00;101128.06;4944249;28;20063;-77
2023/03/28 01:24:53;;;;;;;2.17;0.80;;;;;;;-1.39;100.00;101126.59;4930626;29;20038;-75
2023/03/28 01:27:30;;;;;;;3.65;0.60;;;;;;;-1.41;100.00;101141.53;4942541;28;20042;-75
2023/03/28 01:30:17;;;;;;;5.22;0.80;;;;;;;-1.32;100.00;101138.47;4937315;29;20036;-79
2023/03/28 01:33:47;;;;;;;2.05;0.60;;;;;;;-1.52;100.00;101128.16;4928148;29;20050;-75
2023/03/28 01:36:35;;;;;;;1.02;0.70;;;;;;;-1.51;100.00;101148.16;4930022;29;20421;-75
2023/03/28 01:39:22;;;;;;;4.75;1.10;;;;;;;-1.55;100.00;101149.22;4931405;29;20060;-75
2023/03/28 01:41:54;;;;;;;4.13;1.52;;;;;;;-1.53;100.00;101152.63;4928333;29;20044;-75
2023/03/28 01:44:32;;;;;;;5.18;0.82;;;;;;;-1.50;100.00;101168.16;4927542;29;20051;-75
2023/03/28 01:47:02;;;;;;;1.55;0.77;;;;;;;-1.53;100.00;101165.72;4931767;29;20082;-75
2023/03/28 01:49:42;;;;;;;4.55;1.00;;;;;;;-1.68;100.00;101143.75;4921325;29;20027;-75
2023/03/28 01:52:19;;;;;;;2.95;0.90;;;;;;;-1.60;100.00;101172.16;4931606;29;20042;-75
2023/03/28 01:54:55;;;;;;;1.63;1.00;;;;;;;-1.59;100.00;101166.88;4930420;29;20058;-75
2023/03/28 01:57:27;;;;;;;2.00;1.00;;;;;;;-1.63;100.00;101169.72;4929684;29;20059;-77
2023/03/28 02:00:14;;;;;;;2.97;0.95;;;;;;;-1.64;100.00;101178.47;4943769;28;20035;-77
2023/03/28 02:03:10;;;;;;;2.00;1.20;;;;;;;-1.67;100.00;101194.34;4918837;29;20054;-77
2023/03/28 02:05:43;;;;;;;2.25;0.85;;;;;;;-1.76;100.00;101180.75;4928512;29;20035;-78
2023/03/28 02:08:13;;;;;;;2.10;1.10;;;;;;;-1.75;100.00;101192.09;4943809;28;20071;-75
2023/03/28 02:10:48;;;;;;;3.60;1.40;;;;;;;-1.71;100.00;101186.63;4946477;28;20086;-75
2023/03/28 02:13:34;;;;;;;4.10;0.80;;;;;;;-1.68;100.00;101187.41;4933673;29;20099;-76
2023/03/28 02:16:12;;;;;;;2.90;1.00;;;;;;;-1.77;100.00;101171.22;4928625;29;20038;-75
2023/03/28 02:18:42;;;;;;;1.27;0.73;;;;;;;-1.78;100.00;101171.28;4930882;29;20051;-76
2023/03/28 02:22:33;;;;;;;1.08;0.60;;;;;;;-1.72;100.00;101184.09;4890465;29;20156;-77
2023/03/28 02:24:59;;;;;;;2.50;1.20;;;;;;;-1.79;100.00;101175.66;4891832;29;20247;-77
2023/03/28 02:27:46;;;;;;;3.42;0.85;;;;;;;-1.77;100.00;101189.53;4887354;29;20047;-76
2023/03/28 02:30:34;;;;;;;2.03;0.85;;;;;;;-1.79;100.00;101186.13;4919482;29;20047;-75
2023/03/28 02:33:07;;;;;;;2.60;1.20;;;;;;;-1.77;100.00;101183.47;4944252;28;20039;-75
2023/03/28 02:35:51;;;;;;;1.25;0.75;;;;;;;-1.84;100.00;101174.19;4944078;28;20054;-75
2023/03/28 02:38:31;;;;;;;2.20;0.95;;;;;;;-1.86;100.00;101176.03;4944725;28;20031;-78
2023/03/28 02:41:16;;;;;;;1.33;1.00;;;;;;;-1.92;100.00;101174.53;4928401;29;20039;-76
2023/03/28 02:43:56;;;;;;;2.47;1.00;;;;;;;-1.91;100.00;101177.09;4926138;29;20142;-79
2023/03/28 02:46:50;;;;;;;2.03;0.80;;;;;;;-1.97;100.00;101176.53;4942688;28;20118;-75
2023/03/28 02:49:28;;;;;;;4.05;1.13;;;;;;;-2.10;100.00;101175.41;4909875;29;20042;-76
2023/03/28 02:52:24;;;;;;;4.68;1.10;;;;;;;-2.07;100.00;101185.72;4929089;29;20497;-75
2023/03/28 02:55:19;;;;;;;;;;;;;;;-2.13;100.00;101182.47;4942950;28;20038;-75
2023/03/28 02:58:09;;;;;;;2.45;1.05;;;;;;;-2.17;100.00;101194.00;4907210;29;20019;-78
2023/03/28 03:00:38;;;;;;;3.00;1.20;;;;;;;-2.08;100.00;101218.03;4929065;29;20031;-74
2023/03/28 03:03:09;;;;;;;5.03;1.02;;;;;;;-2.16;100.00;101211.38;4930640;29;20057;-74
2023/03/28 03:05:35;;;;;;;2.00;0.90;;;;;;;-2.12;100.00;101226.03;4927882;29;20031;-75
2023/03/28 03:08:01;;;;;;;2.08;0.70;;;;;;;-2.23;100.00;101211.75;4946366;28;20103;-74
2023/03/28 03:10:27;;;;;;;1.92;0.98;;;;;;;-2.16;100.00;101234.94;4945033;28;20028;-77
2023/03/28 03:12:53;;;;;;;1.27;0.70;;;;;;;-2.26;100.00;101231.03;4930517;29;20478;-78
2023/03/28 03:15:18;;;;;;;3.15;0.93;;;;;;;-2.24;100.00;101241.44;4945212;28;20032;-75
2023/03/28 03:17:44;;;;;;;4.55;1.00;;;;;;;-2.13;100.00;101263.59;4943607;28;20591;-74
2023/03/28 03:20:11;;;;;;;1.58;0.82;;;;;;;-2.26;100.00;101248.50;4911617;29;20034;-75
2023/03/28 03:22:37;;;;;;;3.20;1.38;;;;;;;-2.17;100.00;101275.09;4944201;28;20036;-75
2023/03/28 03:25:06;;;;;;;4.05;1.13;;;;;;;-2.14;100.00;101281.97;4935991;29;20027;-75
2023/03/28 03:27:39;;;;;;;1.70;1.57;;;;;;;-2.10;100.00;101280.06;4930774;29;20664;-75
2023/03/28 03:30:08;;;;;;;1.15;0.70;;;;;;;-2.17;100.00;101264.63;4929776;29;20090;-78
2023/03/28 03:32:52;;;;;;;1.90;1.00;;;;;;;-2.15;100.00;101267.19;4949899;28;20461;-76
2023/03/28 03:35:21;;;;;;;2.83;0.93;;;;;;;-2.21;100.00;101257.84;4948704;28;20035;-75
2023/03/28 03:37:46;;;;;;;1.30;1.02;;;;;;;-2.22;100.00;101264.00;4932982;29;20027;-77
2023/03/28 03:40:12;;;;;;;1.58;0.93;;;;;;;-2.27;100.00;101262.47;4916821;29;20038;-75
2023/03/28 03:42:41;;;;;;;1.23;0.80;;;;;;;-2.27;100.00;101267.72;4946733;28;20558;-76
2023/03/28 03:45:08;;;;;;;1.75;0.93;;;;;;;-2.33;100.00;101258.38;4932802;29;20019;-77
2023/03/28 03:47:33;;;;;;;2.08;0.85;;;;;;;-2.28;100.00;101282.56;4932355;29;20040;-75
2023/03/28 03:49:59;;;;;;;5.00;1.25;;;;;;;-2.27;100.00;101289.50;4930699;29;20043;-74
2023/03/28 03:52:24;;;;;;;1.83;1.08;;;;;;;-2.23;100.00;101293.66;4932298;29;20040;-74
2023/03/28 03:54:50;;;;;;;1.38;1.20;;;;;;;-2.28;100.00;101290.41;4949481;28;20548;-75
2023/03/28 03:57:16;;;;;;;9.65;1.23;;;;;;;-2.26;100.00;101296.44;4916071;29;20028;-75
2023/03/28 03:59:42;;;;;;;2.33;1.02;;;;;;;-2.30;100.00;101289.63;4946613;28;20063;-78
2023/03/28 04:02:11;;;;;;;2.65;1.05;;;;;;;-2.33;100.00;101288.00;4912880;29;20194;-77
2023/03/28 04:04:44;;;;;;;3.53;0.98;;;;;;;-2.35;100.00;101294.22;4930696;29;20028;-76
2023/03/28 04:07:16;;;;;;;1.83;0.93;;;;;;;-2.35;100.00;101297.66;4932322;29;20028;-76
2023/03/28 04:09:44;;;;;;;3.33;1.33;;;;;;;-2.33;100.00;101310.69;4946326;28;20405;-76
2023/03/28 04:12:10;;;;;;;3.13;1.00;;;;;;;-2.42;100.00;101301.47;4917232;29;20025;-74
2023/03/28 04:14:47;;;;;;;1.95;0.95;;;;;;;-2.49;100.00;101299.19;4928636;29;20103;-75
2023/03/28 04:17:39;;;;;;;1.38;0.70;;;;;;;-2.55;100.00;101298.53;4932015;29;20119;-75
2023/03/28 04:20:12;;;;;;;3.80;1.00;;;;;;;-2.48;100.00;101311.34;4947333;28;20413;-78
2023/03/28 04:22:59;;;;;;;2.35;1.10;;;;;;;-2.55;100.00;101301.16;4947575;28;20728;-77
2023/03/28 04:25:24;;;;;;;10.00;1.40;;;;;;;-2.61;100.00;101298.78;4947904;28;20031;-77
2023/03/28 04:27:53;;;;;;;3.50;1.70;;;;;;;-2.67;100.00;101291.22;4931622;29;20034;-74
2023/03/28 04:30:20;;;;;;;2.45;0.95;;;;;;;-2.73;100.00;101296.69;4930148;29;20039;-74
2023/03/28 04:33:17;;;;;;;1.98;1.00;;;;;;;-2.85;100.00;101291.97;4932439;29;20102;-78
2023/03/28 04:35:42;;;;;;;3.40;0.93;;;;;;;-2.91;100.00;101300.06;4931408;29;20422;-78
2023/03/28 04:38:09;;;;;;;1.77;1.00;;;;;;;-2.94;100.00;101310.66;4916941;29;20118;-75
2023/03/28 04:40:34;;;;;;;3.20;1.20;;;;;;;-3.06;100.00;101305.00;4932923;29;20028;-75
2023/03/28 04:43:17;;;;;;;2.08;1.50;;;;;;;-3.02;100.00;101331.84;4931212;29;20405;-75
2023/03/28 04:45:49;;;;;;;3.70;1.80;;;;;;;-3.10;100.00;101326.91;4932205;29;20040;-77
2023/03/28 04:48:16;;;;;;;2.17;1.25;;;;;;;-3.06;100.00;101346.78;4915390;29;20513;-76
2023/03/28 04:50:42;;;;;;;2.30;1.10;;;;;;;-3.02;100.00;101364.06;4927709;29;20031;-77
2023/03/28 04:53:07;;;;;;;2.97;1.50;;;;;;;-3.01;100.00;101391.88;4943274;28;20039;-74
2023/03/28 04:55:34;;;;;;;2.33;1.13;;;;;;;-3.11;100.00;101376.63;4931302;29;20144;-74
2023/03/28 04:58:12;;;;;;;4.22;1.08;;;;;;;-3.20;100.00;101381.28;4930459;29;20493;-75
2023/03/28 05:00:38;;;;;;;4.93;1.88;;;;;;;-3.13;100.00;101391.50;4930286;29;20028;-76
2023/03/28 05:03:03;;;;;;;4.22;1.23;;;;;;;-3.10;100.00;101410.50;4947017;28;20042;-76
2023/03/28 05:05:33;;;;;;;3.65;1.42;;;;;;;-3.06;100.00;101425.16;4931286;29;20040;-74
2023/03/28 05:07:58;;;;;;;4.55;2.08;;;;;;;-3.09;100.00;101427.91;4928625;29;20042;-79
2023/03/28 05:10:23;;;;;;;4.88;1.05;;;;;;;-3.00;100.00;101445.84;4936906;29;20037;-77
2023/03/28 05:12:50;;;;;;;2.15;1.00;;;;;;;-3.00;100.00;101444.97;4947691;28;20446;-74
2023/03/28 05:15:15;;;;;;;2.13;0.95;;;;;;;-2.99;100.00;101442.31;4915138;29;20039;-76
2023/03/28 05:17:53;;;;;;;5.03;1.48;;;;;;;-3.01;100.00;101448.50;4930205;29;20036;-75
2023/03/28 05:20:39;;;;;;;6.40;1.42;;;;;;;-2.99;100.00;101454.53;4929424;29;20584;-76
2023/03/28 05:23:05;;;;;;;;;;;;;;;-2.96;100.00;101454.41;4931943;29;20118;-74
2023/03/28 05:25:32;;;;;;;2.97;1.15;;;;;;;-3.04;100.00;101457.31;4930752;29;19934;-75
2023/03/28 05:27:58;;;;;;;6.60;1.50;;;;;;;-3.03;100.00;101456.41;4929268;29;20032;-76
2023/03/28 05:30:24;;;;;;;;;;;;;;;-2.99;100.00;101462.38;4930691;29;20643;-78
2023/03/28 05:32:52;;;;;;;3.67;0.95;;;;;;;-3.02;100.00;101471.19;4947510;28;19926;-75
2023/03/28 05:35:18;;;;;;;;;;;;;;;-3.00;100.00;101479.81;4935748;29;20132;-74
2023/03/28 05:37:44;;;;;;;7.40;1.25;;;;;;;-3.01;100.00;101480.69;4928725;29;19928;-75
2023/03/28 05:40:11;;;;;;;1.73;0.93;;;;;;;-2.96;100.00;101488.38;4945313;28;20496;-79
2023/03/28 05:42:39;;;;;;;1.70;1.13;;;;;;;-2.93;100.00;101495.25;4928593;29;20024;-74
2023/03/28 05:45:11;;;;;;;1.35;0.88;;;;;;;-2.85;100.00;101511.50;4926346;29;20027;-77
2023/03/28 05:47:57;;;;;;;2.95;1.20;;;;;;;-2.75;100.00;101525.91;4928209;29;20083;-76
2023/03/28 05:50:23;;;;;;;3.55;1.60;;;;;;;-2.57;100.00;101545.28;4928000;29;20449;-75
2023/03/28 05:52:50;;;;;;;9.10;1.50;;;;;;;-2.47;100.00;101556.25;4947775;28;20207;-74
2023/03/28 05:55:16;;;;;;;4.55;1.40;;;;;;;-2.35;100.00;101571.44;4915475;29;20032;-75
2023/03/28 05:57:43;;;;;;;3.78;1.60;;;;;;;-2.24;100.00;101565.81;4940262;28;20300;-76
2023/03/28 06:00:12;;;;;;;3.17;1.67;;;;;;;-2.11;100.00;101577.47;4914521;29;20505;-77
2023/03/28 06:02:43;;;;;;;5.15;1.85;;;;;;;-1.94;100.00;101585.53;4928911;29;20114;-75
2023/03/28 06:05:10;;;;;;;5.20;1.73;;;;;;;-1.84;100.00;101580.75;4911289;29;20481;-76
2023/03/28 06:07:36;;;;;;;3.80;1.48;;;;;;;-1.63;100.00;101593.91;4943938;28;20512;-74
2023/03/28 06:10:03;;;;;;;3.08;1.33;;;;;;;0.02;100.00;101690.63;4930928;29;20031;-80
2023/03/28 06:12:30;;;;;;;3.60;1.50;;;;;;;1.48;100.00;101702.69;4945913;28;20027;-75
2023/03/28 06:14:59;;;;;;;3.55;1.70;;;;;;;2.31;100.00;101650.75;4928401;29;20127;-75
2023/03/28 06:17:28;;;;;;;3.92;1.35;;;;;;;2.88;100.00;101555.19;4946289;28;20024;-74
2023/03/28 06:19:56;;;;;;;2.03;1.30;;;;;;;3.48;100.00;101437.09;4928585;29;20028;-74
2023/03/28 06:22:22;;;;;;;1.80;0.90;;;;;;;4.02;100.00;101297.81;4928498;29;20490;-77
2023/03/28 06:24:52;;;;;;;1.27;0.70;;;;;;;4.00;100.00;101100.72;4931447;29;20063;-75
2023/03/28 06:27:24;;;;;;;2.40;0.70;;;;;;;4.16;100.00;100934.81;4928793;29;20027;-74
2023/03/28 06:29:50;;;;;;;1.45;0.85;;;;;;;4.50;100.00;100813.25;4930688;29;20668;-78
2023/03/28 06:32:18;;;;;;;4.57;0.98;;;;;;;4.93;100.00;100656.34;4920629;29;20035;-79
2023/03/28 06:34:43;;;;;;;1.92;0.90;;;;;;;5.05;100.00;100483.31;4941377;28;20038;-74
2023/03/28 06:37:08;;;;;;;1.38;0.95;;;;;;;4.92;100.00;100275.56;4917685;29;20039;-74
2023/03/28 06:39:51;;;;;;;2.40;1.10;;;;;;;5.08;100.00;100191.16;4926585;29;20068;-77
2023/03/28 06:42:17;;;;;;;1.27;0.82;;;;;;;5.42;100.00;100143.88;4929255;29;20118;-78
2023/03/28 06:44:52;;;;;;;2.33;0.75;;;;;;;5.66;100.00;99983.63;4930603;29;20251;-76
2023/03/28 06:47:28;;;;;;;1.98;1.33;;;;;;;5.37;100.00;99807.28;4945435;28;20035;-80
2023/03/28 06:49:53;;;;;;;2.83;1.27;;;;;;;5.59;100.00;99802.50;4928935;29;20055;-77
2023/03/28 06:52:32;;;;;;;1.10;0.98;;;;;;;5.27;100.00;99653.03;4914672;29;20031;-74
2023/03/28 06:54:59;;;;;;;1.92;1.10;;;;;;;4.47;100.00;99586.94;4929792;29;20048;-75
2023/03/28 06:57:24;;;;;;;2.47;1.10;;;;;;;4.53;100.00;99750.22;4934189;29;20123;-74
2023/03/28 06:59:56;;;;;;;3.58;1.83;;;;;;;4.34;100.00;99761.72;4949051;28;20035;-74
2023/03/28 07:02:29;;;;;;;1.98;1.58;;;;;;;4.19;100.00;99843.28;4938627;29;20156;-74
2023/03/28 07:05:01;;;;;;;3.75;1.73;;;;;;;3.91;100.00;99812.47;4930716;29;20028;-76
2023/03/28 07:07:27;;;;;;;4.63;0.80;;;;;;;3.79;100.00;99833.78;4939035;29;20031;-77
2023/03/28 07:09:53;;;;;;;2.60;1.17;;;;;;;4.31;100.00;100021.00;4944130;29;20063;-74
2023/03/28 07:12:19;;;;;;;3.13;1.08;;;;;;;4.40;100.00;99943.50;4923073;29;20034;-75
2023/03/28 07:14:46;;;;;;;2.38;1.15;;;;;;;4.68;100.00;99932.16;4935717;29;20024;-75
2023/03/28 07:17:12;;;;;;;10.68;2.53;;;;;;;4.78;100.00;99851.00;4923819;29;20042;-74
2023/03/28 07:19:38;;;;;;;4.45;1.00;;;;;;;4.52;100.00;99682.47;4922573;29;20393;-77
2023/03/28 07:22:03;;;;;;;5.53;1.60;;;;;;;4.37;100.00;99686.59;4940131;29;20029;-78
2023/03/28 07:24:28;;;;;;;4.57;0.80;;;;;;;4.52;100.00;99825.22;4921770;29;20426;-77
2023/03/28 07:27:10;;;;;;;4.95;1.52;;;;;;;4.95;100.00;99971.88;4927486;29;20031;-74
2023/03/28 07:29:35;;;;;;;5.27;1.20;;;;;;;4.49;100.00;99791.13;4931349;29;20034;-76
2023/03/28 07:32:00;;;;;;;5.07;1.27;;;;;;;4.82;100.00;99981.94;4917708;29;20436;-77
2023/03/28 07:34:26;;;;;;;2.77;0.90;;;;;;;4.67;100.00;99877.63;4922025;29;20090;-75
2023/03/28 07:36:52;;;;;;;3.20;1.33;;;;;;;4.80;100.00;100011.19;4933227;29;20090;-81
2023/03/28 07:39:38;;;;;;;5.88;0.85;;;;;;;4.86;100.00;99909.25;4915670;29;20066;-75
2023/03/28 07:42:09;;;;;;;2.75;1.25;;;;;;;4.83;100.00;99840.81;4928517;29;20067;-79
2023/03/28 07:44:35;;;;;;;1.65;1.00;;;;;;;4.63;100.00;99708.69;4950436;29;20033;-78
2023/03/28 07:47:00;;;;;;;3.10;1.10;;;;;;;5.19;100.00;99873.44;4939287;29;20400;-76
2023/03/28 07:49:26;;;;;;;4.78;1.00;;;;;;;5.44;100.00;99903.63;4932834;29;20894;-76
2023/03/28 07:51:51;;;;;;;1.95;1.20;;;;;;;5.77;100.00;99872.16;4933431;29;20078;-78
2023/03/28 07:54:17;;;;;;;2.90;0.90;;;;;;;5.93;100.00;99824.63;4926398;29;20077;-75
2023/03/28 07:56:44;;;;;;;9.32;1.30;;;;;;;6.16;100.00;99813.53;4915028;29;20032;-76
2023/03/28 07:59:49;;;;;;;7.57;1.38;;;;;;;5.80;100.00;99654.66;4877676;29;20077;-76
2023/03/28 08:02:15;;;;;;;;;;;;;;;6.26;100.00;99829.31;4888208;29;20088;-77
2023/03/28 08:04:41;;;;;;;5.05;1.00;;;;;;;6.66;100.00;99754.41;4909131;29;19926;-77
2023/03/28 08:07:08;;;;;;;11.77;2.00;;;;;;;6.95;99.00;99700.94;4947889;28;20067;-76
2023/03/28 08:09:35;;;;;;;4.53;1.60;;;;;;;7.17;98.42;99733.13;4932346;29;20032;-77
2023/03/28 08:12:11;;;;;;;7.43;2.58;;;;;;;7.58;95.24;99598.44;4961057;28;20080;-77
2023/03/28 08:14:37;;;;;;;5.20;1.83;;;;;;;7.19;93.69;99360.31;4948764;28;20138;-76
2023/03/28 08:17:03;;;;;;;5.95;1.38;;;;;;;7.65;93.28;99492.34;4933002;29;20038;-77
2023/03/28 08:19:29;;;;;;;10.45;1.25;;;;;;;6.91;90.36;99107.91;4916594;29;20031;-76
2023/03/28 08:22:26;;;;;;;7.03;1.52;;;;;;;7.74;92.05;99533.81;4923084;29;20547;-78
2023/03/28 08:25:12;;;;;;;4.30;1.52;;;;;;;8.48;90.43;99556.50;4904446;29;20051;-76
2023/03/28 08:27:37;;;;;;;2.60;1.10;;;;;;;8.75;87.71;99361.66;4932897;29;20512;-76
2023/03/28 08:30:09;;;;;;;5.88;1.60;;;;;;;8.92;85.27;99164.50;4924840;29;20270;-75
2023/03/28 08:32:38;;;;;;;5.13;1.40;;;;;;;9.12;84.87;99200.13;4933713;29;20490;-77
2023/03/28 08:35:05;;;;;;;3.97;1.10;;;;;;;8.67;82.15;98869.56;4932638;29;20093;-77
2023/03/28 08:37:31;;;;;;;5.40;1.10;;;;;;;8.88;82.72;99076.25;4926467;29;20641;-77
2023/03/28 08:39:59;;;;;;;5.75;1.05;;;;;;;8.12;79.79;98579.66;4934174;29;20035;-76
2023/03/28 08:43:03;;;;;;;4.00;1.30;;;;;;;8.26;79.00;98612.41;4950345;29;20027;-78
2023/03/28 08:45:41;;;;;;;4.25;0.80;;;;;;;9.41;78.31;98929.28;4943459;28;20401;-75
2023/03/28 08:48:16;;;;;;;4.53;1.00;;;;;;;10.06;76.06;98858.50;4931652;29;20119;-78
2023/03/28 08:51:16;;;;;;;7.28;1.08;;;;;;;8.60;75.56;98389.94;4932055;29;20043;-80
2023/03/28 08:53:48;;;;;;;2.33;0.80;;;;;;;8.20;76.10;98509.56;4932186;29;20055;-78
2023/03/28 08:56:15;;;;;;;7.40;1.00;;;;;;;8.88;75.46;98744.41;4909489;29;20106;-77
2023/03/28 08:59:05;;;;;;;6.03;0.85;;;;;;;9.57;74.61;98817.03;4931469;29;20653;-77
2023/03/28 09:01:31;;;;;;;4.13;0.63;;;;;;;9.53;72.90;98576.09;4930336;29;20034;-78
2023/03/28 09:03:58;;;;;;;5.93;1.52;;;;;;;9.15;70.77;98229.84;4948005;28;20020;-77
2023/03/28 09:06:43;;;;;;;10.75;1.33;;;;;;;9.62;71.84;98597.97;4941666;29;20872;-76
2023/03/28 09:09:37;;;;;;;3.45;1.40;;;;;;;10.30;72.25;98866.94;4928099;29;20035;-76
2023/03/28 09:12:25;;;;;;;3.97;1.33;;;;;;;10.59;70.00;98755.44;4940019;29;20097;-77
2023/03/28 09:15:00;;;;;;;3.55;0.90;;;;;;;9.60;68.76;98214.59;4951087;29;20345;-78
2023/03/28 09:17:49;;;;;;;1.63;0.90;;;;;;;9.62;68.08;98185.03;4926422;29;20452;-77
2023/03/28 09:20:21;;;;;;;4.07;0.80;;;;;;;9.51;68.20;98319.75;4953412;28;20028;-77
2023/03/28 09:22:53;;;;;;;2.85;1.02;;;;;;;9.12;66.09;97893.06;4931221;29;20078;-78
2023/03/28 09:25:44;;;;;;;7.88;1.10;;;;;;;7.70;66.25;97475.94;4936247;29;20329;-78
2023/03/28 09:28:29;;;;;;;2.38;0.73;;;;;;;8.41;66.35;97959.03;4919876;29;20716;-77
2023/03/28 09:30:57;;;;;;;4.90;1.08;;;;;;;8.60;66.30;97956.44;4928554;29;20042;-76
2023/03/28 09:33:28;;;;;;;1.33;0.88;;;;;;;9.76;66.96;98510.81;4926150;29;20035;-78
2023/03/28 09:35:58;;;;;;;2.08;0.90;;;;;;;9.62;65.18;98212.53;4931865;29;20412;-76
2023/03/28 09:38:34;;;;;;;5.07;0.82;;;;;;;10.29;65.27;98489.25;4915322;29;20031;-77
2023/03/28 09:41:06;;;;;;;3.40;1.00;;;;;;;10.46;64.04;98362.28;4931603;29;20075;-76
2023/03/28 09:43:45;;;;;;;2.25;1.13;;;;;;;10.49;62.03;98096.97;4937164;29;20027;-78
2023/03/28 09:46:40;;;;;;;3.35;0.98;;;;;;;10.29;59.11;97545.25;4931512;29;20086;-76
2023/03/28 09:49:28;;;;;;;5.13;1.13;;;;;;;10.67;60.90;98086.22;4939039;28;20401;-77
2023/03/28 09:51:58;;;;;;;4.50;1.00;;;;;;;9.27;61.18;97656.59;4932778;29;20382;-78
2023/03/28 09:54:29;;;;;;;4.07;0.80;;;;;;;9.73;61.69;97972.00;4913322;29;20036;-77
2023/03/28 09:56:59;;;;;;;4.97;0.90;;;;;;;10.34;60.27;97996.81;4947359;28;20039;-77
2023/03/28 09:59:42;;;;;;;3.63;1.05;;;;;;;10.23;60.32;97964.75;4945679;28;20118;-79
2023/03/28 10:02:24;;;;;;;6.13;0.98;;;;;;;10.38;59.18;97818.50;4929909;29;20367;-78
2023/03/28 10:04:51;;;;;;;4.43;1.38;;;;;;;10.10;59.60;97825.31;4929004;29;20425;-79
2023/03/28 10:07:29;;;;;;;4.35;1.10;;;;;;;10.26;59.29;97865.66;4928820;29;20533;-78
2023/03/28 10:10:25;;;;;;;2.80;0.88;;;;;;;10.35;59.41;97938.97;4947138;28;20055;-77
2023/03/28 10:13:02;;;;;;;3.97;1.02;;;;;;;10.24;58.00;97681.91;4948296;28;20034;-78
2023/03/28 10:15:45;;;;;;;4.65;1.98;;;;;;;11.24;58.07;98127.63;4929738;29;20035;-77
2023/03/28 10:18:34;;;;;;;7.03;0.60;;;;;;;11.75;57.80;98284.69;4933173;29;20058;-76
2023/03/28 10:21:17;;;;;;;3.67;0.82;;;;;;;12.18;55.25;97985.88;4929047;29;20053;-78
2023/03/28 10:23:56;;;;;;;1.55;0.85;;;;;;;12.34;52.51;97585.66;4939984;28;20051;-79
2023/03/28 10:26:24;;;;;;;1.60;0.60;;;;;;;11.94;52.93;97493.22;4927173;29;20386;-78
2023/03/28 10:28:53;;;;;;;3.45;0.50;;;;;;;12.25;50.72;97213.56;4930306;29;20031;-78
2023/03/28 10:31:28;;;;;;;2.75;0.60;;;;;;;12.13;50.62;97194.25;4925360;29;20020;-77
2023/03/28 10:33:59;;;;;;;3.92;0.90;;;;;;;12.69;50.23;97443.38;4929445;29;20054;-77
2023/03/28 10:37:00;;;;;;;2.53;1.00;;;;;;;12.41;49.31;97217.13;4868981;29;20571;-78
2023/03/28 10:39:40;;;;;;;4.25;0.90;;;;;;;12.86;48.67;97331.59;4910731;29;20063;-78
2023/03/28 10:42:44;;;;;;;3.40;0.60;;;;;;;12.94;49.04;97375.78;4930030;29;20679;-81
2023/03/28 10:45:33;;;;;;;1.88;0.80;;;;;;;12.93;48.30;97319.84;4929428;29;20409;-78
2023/03/28 10:48:05;;;;;;;2.20;0.70;;;;;;;13.12;47.47;97293.41;4933930;29;20050;-81
2023/03/28 10:50:39;;;;;;;2.05;0.82;;;;;;;13.58;48.42;97677.63;4943565;28;20102;-81
2023/03/28 10:53:46;;;;;;;3.75;0.60;;;;;;;13.58;46.88;97321.16;4925391;29;20509;-81
2023/03/28 10:56:32;;;;;;;2.85;1.20;;;;;;;13.29;46.06;97047.56;4932854;29;20046;-76
2023/03/28 10:59:12;;;;;;;2.53;0.60;;;;;;;12.31;46.25;96701.66;4904773;29;20034;-79
2023/03/28 11:01:53;;;;;;;2.75;1.13;;;;;;;12.52;46.80;97097.56;4938106;29;20500;-78
2023/03/28 11:04:49;;;;;;;3.45;1.27;;;;;;;13.17;48.29;97689.84;4936674;29;20107;-78
2023/03/28 11:07:27;;;;;;;6.07;0.80;;;;;;;13.50;46.47;97469.06;4943776;28;20032;-81
2023/03/28 11:10:12;;;;;;;1.92;1.13;;;;;;;13.15;45.09;96873.22;4944351;28;20031;-78
2023/03/28 11:13:16;;;;;;;8.63;0.80;;;;;;;13.02;46.91;97363.81;4942344;28;20040;-78
2023/03/28 11:15:46;;;;;;;1.58;0.65;;;;;;;12.91;45.23;97006.06;4940878;28;20066;-77
2023/03/28 11:18:53;;;;;;;4.95;1.00;;;;;;;12.94;45.25;97003.66;4926824;29;20036;-78
2023/03/28 11:21:42;;;;;;;6.30;0.85;;;;;;;13.93;46.38;97837.97;4929309;29;20062;-78
2023/03/28 11:24:31;;;;;;;3.08;0.93;;;;;;;13.49;44.17;97127.13;4926513;29;20031;-77
2023/03/28 11:27:33;;;;;;;3.28;0.80;;;;;;;13.47;45.18;97339.06;4927055;29;20053;-79
2023/03/28 11:30:24;;;;;;;2.70;0.90;;;;;;;13.74;44.62;97356.81;4924319;29;20393;-82
2023/03/28 11:33:12;;;;;;;2.08;0.75;;;;;;;13.50;44.21;97132.19;4938816;29;20138;-78
2023/03/28 11:35:44;;;;;;;4.50;1.17;;;;;;;14.53;43.95;97626.59;4939473;29;20032;-78
2023/03/28 11:38:21;;;;;;;4.65;0.93;;;;;;;14.39;44.20;97590.59;4917046;29;20031;-78
2023/03/28 11:40:58;;;;;;;1.85;0.63;;;;;;;13.47;44.63;97170.25;4943643;28;20038;-79
2023/03/28 11:44:01;;;;;;;3.30;0.60;;;;;;;12.19;45.53;96891.00;4936178;28;20109;-79
2023/03/28 11:46:32;;;;;;;5.82;0.70;;;;;;;10.75;45.98;96413.00;4933841;29;20058;-78
2023/03/28 11:49:50;;;;;;;4.90;0.95;;;;;;;11.22;47.03;96950.31;4932923;29;20031;-77
2023/03/28 11:52:40;;;;;;;3.25;0.73;;;;;;;11.48;47.73;97228.22;4935030;29;20054;-77
2023/03/28 11:55:25;;;;;;;3.25;0.65;;;;;;;11.32;47.54;97212.03;4944387;29;20163;-79
2023/03/28 11:58:03;;;;;;;2.60;0.85;;;;;;;11.14;47.38;97106.44;4936153;29;20299;-76
2023/03/28 12:00:36;;;;;;;3.33;0.77;;;;;;;10.70;47.99;97023.06;4932281;29;20114;-77
2023/03/28 12:03:45;;;;;;;6.22;1.23;;;;;;;9.69;49.39;96916.00;4921899;29;20466;-77